sensor_id;sensor_type;location;lat;lon;timestamp;temperature;humidity
15844;DHT22;50807;52.436;13.346;2023-02-27T00:00:26;5.40;61.90
15844;DHT22;50807;52.436;13.346;2023-02-27T00:00:58;5.40;61.90
15844;DHT22;50807;52.436;13.346;2023-02-27T00:01:31;5.50;62.00
15844;DHT22;50807;52.436;13.346;2023-02-27T00:02:03;5.40;62.00
15844;DHT22;50807;52.436;13.346;2023-02-27T00:02:34;5.40;62.00
15844;DHT22;50807;52.436;13.346;2023-02-27T00:03:05;5.40;62.00
15844;DHT22;50807;52.436;13.346;2023-02-27T00:03:37;5.40;62.10
15844;DHT22;50807;52.436;13.346;2023-02-27T00:04:08;5.40;62.00
15844;DHT22;50807;52.436;13.346;2023-02-27T00:04:38;5.40;62.00
15844;DHT22;50807;52.436;13.346;2023-02-27T00:05:10;5.40;62.10
15844;DHT22;50807;52.436;13.346;2023-02-27T00:05:43;5.40;62.10
15844;DHT22;50807;52.436;13.346;2023-02-27T00:06:14;5.30;62.00
15844;DHT22;50807;52.436;13.346;2023-02-27T00:06:47;5.30;62.00
15844;DHT22;50807;52.436;13.346;2023-02-27T00:07:17;5.30;62.10
15844;DHT22;50807;52.436;13.346;2023-02-27T00:07:48;5.30;62.10
15844;DHT22;50807;52.436;13.346;2023-02-27T00:08:21;5.30;62.10
15844;DHT22;50807;52.436;13.346;2023-02-27T00:08:52;5.30;62.10
15844;DHT22;50807;52.436;13.346;2023-02-27T00:09:23;5.30;62.20
15844;DHT22;50807;52.436;13.346;2023-02-27T00:09:55;5.30;62.20
15844;DHT22;50807;52.436;13.346;2023-02-27T00:10:26;5.30;62.90
15844;DHT22;50807;52.436;13.346;2023-02-27T00:10:56;5.30;62.20
15844;DHT22;50807;52.436;13.346;2023-02-27T00:11:28;5.30;62.20
15844;DHT22;50807;52.436;13.346;2023-02-27T00:11:59;5.30;62.30
15844;DHT22;50807;52.436;13.346;2023-02-27T00:12:30;5.20;62.30
15844;DHT22;50807;52.436;13.346;2023-02-27T00:13:07;5.30;62.40
15844;DHT22;50807;52.436;13.346;2023-02-27T00:13:37;5.20;62.30
15844;DHT22;50807;52.436;13.346;2023-02-27T00:14:09;5.20;62.40
15844;DHT22;50807;52.436;13.346;2023-02-27T00:14:40;5.20;62.40
15844;DHT22;50807;52.436;13.346;2023-02-27T00:15:12;5.20;62.40
15844;DHT22;50807;52.436;13.346;2023-02-27T00:15:45;5.20;62.40
15844;DHT22;50807;52.436;13.346;2023-02-27T00:16:17;5.20;62.50
15844;DHT22;50807;52.436;13.346;2023-02-27T00:16:48;5.20;62.50
15844;DHT22;50807;52.436;13.346;2023-02-27T00:17:19;5.20;62.50
15844;DHT22;50807;52.436;13.346;2023-02-27T00:17:50;5.20;62.80
15844;DHT22;50807;52.436;13.346;2023-02-27T00:18:21;5.20;62.50
15844;DHT22;50807;52.436;13.346;2023-02-27T00:18:53;5.10;62.60
15844;DHT22;50807;52.436;13.346;2023-02-27T00:19:26;5.10;62.60
15844;DHT22;50807;52.436;13.346;2023-02-27T00:19:57;5.10;62.60
15844;DHT22;50807;52.436;13.346;2023-02-27T00:20:29;5.10;62.70
15844;DHT22;50807;52.436;13.346;2023-02-27T00:21:08;5.10;62.60
15844;DHT22;50807;52.436;13.346;2023-02-27T00:21:39;5.10;62.70
15844;DHT22;50807;52.436;13.346;2023-02-27T00:22:10;5.10;62.70
15844;DHT22;50807;52.436;13.346;2023-02-27T00:22:42;5.10;62.70
15844;DHT22;50807;52.436;13.346;2023-02-27T00:23:14;5.10;62.80
15844;DHT22;50807;52.436;13.346;2023-02-27T00:23:45;5.00;62.70
15844;DHT22;50807;52.436;13.346;2023-02-27T00:24:16;5.00;62.80
15844;DHT22;50807;52.436;13.346;2023-02-27T00:24:47;5.00;62.80
15844;DHT22;50807;52.436;13.346;2023-02-27T00:25:18;5.00;62.80
15844;DHT22;50807;52.436;13.346;2023-02-27T00:25:50;5.00;62.90
15844;DHT22;50807;52.436;13.346;2023-02-27T00:26:21;5.00;62.90
15844;DHT22;50807;52.436;13.346;2023-02-27T00:26:52;5.00;63.00
15844;DHT22;50807;52.436;13.346;2023-02-27T00:27:24;5.00;63.10
15844;DHT22;50807;52.436;13.346;2023-02-27T00:27:55;5.00;63.10
15844;DHT22;50807;52.436;13.346;2023-02-27T00:28:26;5.00;63.20
15844;DHT22;50807;52.436;13.346;2023-02-27T00:28:58;5.00;63.20
15844;DHT22;50807;52.436;13.346;2023-02-27T00:29:29;4.90;63.20
15844;DHT22;50807;52.436;13.346;2023-02-27T00:30:00;5.00;63.20
15844;DHT22;50807;52.436;13.346;2023-02-27T00:30:32;4.90;63.30
15844;DHT22;50807;52.436;13.346;2023-02-27T00:31:03;4.90;63.30
15844;DHT22;50807;52.436;13.346;2023-02-27T00:31:34;4.90;63.40
15844;DHT22;50807;52.436;13.346;2023-02-27T00:32:06;4.90;63.40
15844;DHT22;50807;52.436;13.346;2023-02-27T00:32:37;4.90;63.40
15844;DHT22;50807;52.436;13.346;2023-02-27T00:33:07;4.90;63.40
15844;DHT22;50807;52.436;13.346;2023-02-27T00:33:39;4.90;63.50
15844;DHT22;50807;52.436;13.346;2023-02-27T00:34:10;4.90;63.60
15844;DHT22;50807;52.436;13.346;2023-02-27T00:34:41;4.90;63.60
15844;DHT22;50807;52.436;13.346;2023-02-27T00:35:13;4.90;63.70
15844;DHT22;50807;52.436;13.346;2023-02-27T00:35:43;4.90;63.70
15844;DHT22;50807;52.436;13.346;2023-02-27T00:36:15;4.80;63.70
15844;DHT22;50807;52.436;13.346;2023-02-27T00:36:47;4.90;63.80
15844;DHT22;50807;52.436;13.346;2023-02-27T00:37:18;4.80;64.50
15844;DHT22;50807;52.436;13.346;2023-02-27T00:37:49;4.80;63.80
15844;DHT22;50807;52.436;13.346;2023-02-27T00:38:20;4.80;63.80
15844;DHT22;50807;52.436;13.346;2023-02-27T00:38:51;4.80;63.80
15844;DHT22;50807;52.436;13.346;2023-02-27T00:39:22;4.80;63.80
15844;DHT22;50807;52.436;13.346;2023-02-27T00:39:54;4.80;63.90
15844;DHT22;50807;52.436;13.346;2023-02-27T00:40:24;4.80;63.90
15844;DHT22;50807;52.436;13.346;2023-02-27T00:40:55;4.80;63.90
15844;DHT22;50807;52.436;13.346;2023-02-27T00:41:26;4.70;63.90
15844;DHT22;50807;52.436;13.346;2023-02-27T00:41:58;4.70;64.00
15844;DHT22;50807;52.436;13.346;2023-02-27T00:42:28;4.70;64.00
15844;DHT22;50807;52.436;13.346;2023-02-27T00:43:00;4.70;64.00
15844;DHT22;50807;52.436;13.346;2023-02-27T00:43:32;4.70;64.00
15844;DHT22;50807;52.436;13.346;2023-02-27T00:44:02;4.70;64.10
15844;DHT22;50807;52.436;13.346;2023-02-27T00:44:34;4.70;64.10
15844;DHT22;50807;52.436;13.346;2023-02-27T00:45:07;4.70;64.20
15844;DHT22;50807;52.436;13.346;2023-02-27T00:45:38;4.70;64.20
15844;DHT22;50807;52.436;13.346;2023-02-27T00:46:09;4.70;64.20
15844;DHT22;50807;52.436;13.346;2023-02-27T00:46:40;4.70;64.20
15844;DHT22;50807;52.436;13.346;2023-02-27T00:47:11;4.60;64.30
15844;DHT22;50807;52.436;13.346;2023-02-27T00:47:42;4.70;64.30
15844;DHT22;50807;52.436;13.346;2023-02-27T00:48:14;4.70;64.40
15844;DHT22;50807;52.436;13.346;2023-02-27T00:48:45;4.70;64.40
15844;DHT22;50807;52.436;13.346;2023-02-27T00:49:15;4.60;64.40
15844;DHT22;50807;52.436;13.346;2023-02-27T00:49:46;4.60;65.10
15844;DHT22;50807;52.436;13.346;2023-02-27T00:50:18;4.60;64.50
15844;DHT22;50807;52.436;13.346;2023-02-27T00:50:49;4.60;64.60
15844;DHT22;50807;52.436;13.346;2023-02-27T00:51:21;4.60;64.60
15844;DHT22;50807;52.436;13.346;2023-02-27T00:51:53;4.60;64.60
15844;DHT22;50807;52.436;13.346;2023-02-27T00:52:24;4.60;64.70
15844;DHT22;50807;52.436;13.346;2023-02-27T00:52:55;4.60;64.70
15844;DHT22;50807;52.436;13.346;2023-02-27T00:53:27;4.60;64.70
15844;DHT22;50807;52.436;13.346;2023-02-27T00:53:58;4.60;64.80
15844;DHT22;50807;52.436;13.346;2023-02-27T00:54:29;4.60;64.80
15844;DHT22;50807;52.436;13.346;2023-02-27T00:55:01;4.50;64.70
15844;DHT22;50807;52.436;13.346;2023-02-27T00:55:31;4.60;64.80
15844;DHT22;50807;52.436;13.346;2023-02-27T00:56:03;4.60;64.90
15844;DHT22;50807;52.436;13.346;2023-02-27T00:56:35;4.60;65.00
15844;DHT22;50807;52.436;13.346;2023-02-27T00:57:06;4.60;65.00
15844;DHT22;50807;52.436;13.346;2023-02-27T00:57:37;4.60;65.00
15844;DHT22;50807;52.436;13.346;2023-02-27T00:58:09;4.50;65.00
15844;DHT22;50807;52.436;13.346;2023-02-27T00:58:40;4.50;65.00
15844;DHT22;50807;52.436;13.346;2023-02-27T00:59:11;4.50;65.00
15844;DHT22;50807;52.436;13.346;2023-02-27T00:59:43;4.50;65.00
15844;DHT22;50807;52.436;13.346;2023-02-27T01:00:14;4.50;65.10
15844;DHT22;50807;52.436;13.346;2023-02-27T01:00:45;4.50;65.20
15844;DHT22;50807;52.436;13.346;2023-02-27T01:01:17;4.50;65.20
15844;DHT22;50807;52.436;13.346;2023-02-27T01:01:47;4.50;65.20
15844;DHT22;50807;52.436;13.346;2023-02-27T01:02:18;4.50;65.30
15844;DHT22;50807;52.436;13.346;2023-02-27T01:02:50;4.50;65.30
15844;DHT22;50807;52.436;13.346;2023-02-27T01:03:21;4.50;65.30
15844;DHT22;50807;52.436;13.346;2023-02-27T01:03:51;4.40;65.30
15844;DHT22;50807;52.436;13.346;2023-02-27T01:04:23;4.40;65.30
15844;DHT22;50807;52.436;13.346;2023-02-27T01:04:54;4.50;65.40
15844;DHT22;50807;52.436;13.346;2023-02-27T01:05:25;4.40;65.40
15844;DHT22;50807;52.436;13.346;2023-02-27T01:05:57;4.40;65.50
15844;DHT22;50807;52.436;13.346;2023-02-27T01:06:29;4.40;65.50
15844;DHT22;50807;52.436;13.346;2023-02-27T01:07:00;4.40;65.50
15844;DHT22;50807;52.436;13.346;2023-02-27T01:07:32;4.40;65.50
15844;DHT22;50807;52.436;13.346;2023-02-27T01:08:03;4.40;65.50
15844;DHT22;50807;52.436;13.346;2023-02-27T01:08:34;4.40;65.50
15844;DHT22;50807;52.436;13.346;2023-02-27T01:09:06;4.40;65.50
15844;DHT22;50807;52.436;13.346;2023-02-27T01:09:37;4.40;65.60
15844;DHT22;50807;52.436;13.346;2023-02-27T01:10:10;4.40;65.60
15844;DHT22;50807;52.436;13.346;2023-02-27T01:10:42;4.40;65.70
15844;DHT22;50807;52.436;13.346;2023-02-27T01:11:13;4.40;65.60
15844;DHT22;50807;52.436;13.346;2023-02-27T01:11:44;4.40;65.70
15844;DHT22;50807;52.436;13.346;2023-02-27T01:12:15;4.40;65.70
15844;DHT22;50807;52.436;13.346;2023-02-27T01:12:46;4.40;65.70
15844;DHT22;50807;52.436;13.346;2023-02-27T01:13:17;4.30;65.70
15844;DHT22;50807;52.436;13.346;2023-02-27T01:13:48;4.30;65.70
15844;DHT22;50807;52.436;13.346;2023-02-27T01:14:19;4.30;65.80
15844;DHT22;50807;52.436;13.346;2023-02-27T01:14:50;4.30;65.80
15844;DHT22;50807;52.436;13.346;2023-02-27T01:15:22;4.30;65.90
15844;DHT22;50807;52.436;13.346;2023-02-27T01:15:52;4.30;66.60
15844;DHT22;50807;52.436;13.346;2023-02-27T01:16:23;4.30;66.00
15844;DHT22;50807;52.436;13.346;2023-02-27T01:16:55;4.30;66.00
15844;DHT22;50807;52.436;13.346;2023-02-27T01:17:27;4.30;66.00
15844;DHT22;50807;52.436;13.346;2023-02-27T01:17:58;4.30;66.10
15844;DHT22;50807;52.436;13.346;2023-02-27T01:18:29;4.30;66.10
15844;DHT22;50807;52.436;13.346;2023-02-27T01:19:00;4.30;66.10
15844;DHT22;50807;52.436;13.346;2023-02-27T01:19:31;4.30;66.10
15844;DHT22;50807;52.436;13.346;2023-02-27T01:20:04;4.30;66.20
15844;DHT22;50807;52.436;13.346;2023-02-27T01:20:37;4.30;66.20
15844;DHT22;50807;52.436;13.346;2023-02-27T01:21:08;4.30;66.20
15844;DHT22;50807;52.436;13.346;2023-02-27T01:21:41;4.30;66.20
15844;DHT22;50807;52.436;13.346;2023-02-27T01:22:12;4.20;66.20
15844;DHT22;50807;52.436;13.346;2023-02-27T01:22:42;4.30;66.20
15844;DHT22;50807;52.436;13.346;2023-02-27T01:23:14;4.30;66.30
15844;DHT22;50807;52.436;13.346;2023-02-27T01:23:45;4.20;66.30
15844;DHT22;50807;52.436;13.346;2023-02-27T01:24:16;4.20;66.30
15844;DHT22;50807;52.436;13.346;2023-02-27T01:24:49;4.20;66.30
15844;DHT22;50807;52.436;13.346;2023-02-27T01:25:19;4.20;66.30
15844;DHT22;50807;52.436;13.346;2023-02-27T01:25:50;4.20;66.40
15844;DHT22;50807;52.436;13.346;2023-02-27T01:26:21;4.20;66.40
15844;DHT22;50807;52.436;13.346;2023-02-27T01:26:53;4.20;66.50
15844;DHT22;50807;52.436;13.346;2023-02-27T01:27:23;4.20;66.40
15844;DHT22;50807;52.436;13.346;2023-02-27T01:27:54;4.20;66.50
15844;DHT22;50807;52.436;13.346;2023-02-27T01:28:25;4.20;66.60
15844;DHT22;50807;52.436;13.346;2023-02-27T01:28:58;4.20;66.60
15844;DHT22;50807;52.436;13.346;2023-02-27T01:29:28;4.20;66.70
15844;DHT22;50807;52.436;13.346;2023-02-27T01:29:59;4.20;66.70
15844;DHT22;50807;52.436;13.346;2023-02-27T01:30:31;4.20;66.70
15844;DHT22;50807;52.436;13.346;2023-02-27T01:31:02;4.20;66.70
15844;DHT22;50807;52.436;13.346;2023-02-27T01:31:33;4.20;66.70
15844;DHT22;50807;52.436;13.346;2023-02-27T01:32:04;4.20;66.80
15844;DHT22;50807;52.436;13.346;2023-02-27T01:32:35;4.20;66.80
15844;DHT22;50807;52.436;13.346;2023-02-27T01:33:06;4.20;66.90
15844;DHT22;50807;52.436;13.346;2023-02-27T01:33:39;4.20;66.90
15844;DHT22;50807;52.436;13.346;2023-02-27T01:34:09;4.10;66.80
15844;DHT22;50807;52.436;13.346;2023-02-27T01:34:40;4.10;66.80
15844;DHT22;50807;52.436;13.346;2023-02-27T01:35:12;4.10;66.90
15844;DHT22;50807;52.436;13.346;2023-02-27T01:35:43;4.10;66.90
15844;DHT22;50807;52.436;13.346;2023-02-27T01:36:13;4.10;66.90
15844;DHT22;50807;52.436;13.346;2023-02-27T01:36:46;4.10;67.00
15844;DHT22;50807;52.436;13.346;2023-02-27T01:37:17;4.10;67.00
15844;DHT22;50807;52.436;13.346;2023-02-27T01:37:48;4.10;67.80
15844;DHT22;50807;52.436;13.346;2023-02-27T01:38:20;4.10;67.10
15844;DHT22;50807;52.436;13.346;2023-02-27T01:38:51;4.10;67.20
15844;DHT22;50807;52.436;13.346;2023-02-27T01:39:21;4.10;67.20
15844;DHT22;50807;52.436;13.346;2023-02-27T01:39:53;4.10;67.20
15844;DHT22;50807;52.436;13.346;2023-02-27T01:40:24;4.10;67.30
15844;DHT22;50807;52.436;13.346;2023-02-27T01:40:54;4.10;67.30
15844;DHT22;50807;52.436;13.346;2023-02-27T01:41:27;4.10;67.30
15844;DHT22;50807;52.436;13.346;2023-02-27T01:41:58;4.10;67.30
15844;DHT22;50807;52.436;13.346;2023-02-27T01:42:29;4.10;67.40
15844;DHT22;50807;52.436;13.346;2023-02-27T01:43:01;4.00;67.30
15844;DHT22;50807;52.436;13.346;2023-02-27T01:43:33;4.10;67.40
15844;DHT22;50807;52.436;13.346;2023-02-27T01:44:07;4.10;67.50
15844;DHT22;50807;52.436;13.346;2023-02-27T01:45:08;4.00;67.40
15844;DHT22;50807;52.436;13.346;2023-02-27T01:45:49;4.10;67.60
15844;DHT22;50807;52.436;13.346;2023-02-27T01:46:21;4.10;67.40
15844;DHT22;50807;52.436;13.346;2023-02-27T01:46:52;4.10;67.30
15844;DHT22;50807;52.436;13.346;2023-02-27T01:47:23;4.10;67.30
15844;DHT22;50807;52.436;13.346;2023-02-27T01:47:59;4.10;67.30
15844;DHT22;50807;52.436;13.346;2023-02-27T01:48:36;4.10;67.50
15844;DHT22;50807;52.436;13.346;2023-02-27T01:49:10;4.10;67.50
15844;DHT22;50807;52.436;13.346;2023-02-27T01:49:46;4.10;67.50
15844;DHT22;50807;52.436;13.346;2023-02-27T01:50:17;4.10;67.40
15844;DHT22;50807;52.436;13.346;2023-02-27T01:50:53;4.00;67.40
15844;DHT22;50807;52.436;13.346;2023-02-27T01:51:31;4.00;67.50
15844;DHT22;50807;52.436;13.346;2023-02-27T01:52:10;4.00;67.60
15844;DHT22;50807;52.436;13.346;2023-02-27T01:52:43;4.00;68.30
15844;DHT22;50807;52.436;13.346;2023-02-27T01:53:20;4.00;67.60
15844;DHT22;50807;52.436;13.346;2023-02-27T01:53:55;4.00;67.60
15844;DHT22;50807;52.436;13.346;2023-02-27T01:54:27;4.00;67.60
15844;DHT22;50807;52.436;13.346;2023-02-27T01:55:02;4.00;67.60
15844;DHT22;50807;52.436;13.346;2023-02-27T01:55:38;4.00;67.70
15844;DHT22;50807;52.436;13.346;2023-02-27T01:56:11;4.00;67.70
15844;DHT22;50807;52.436;13.346;2023-02-27T01:56:46;4.00;67.70
15844;DHT22;50807;52.436;13.346;2023-02-27T01:57:17;4.00;67.70
15844;DHT22;50807;52.436;13.346;2023-02-27T01:57:49;4.00;67.70
15844;DHT22;50807;52.436;13.346;2023-02-27T01:58:22;4.00;67.80
15844;DHT22;50807;52.436;13.346;2023-02-27T01:58:55;3.90;67.80
15844;DHT22;50807;52.436;13.346;2023-02-27T01:59:30;4.00;67.90
15844;DHT22;50807;52.436;13.346;2023-02-27T02:00:02;4.00;67.90
15844;DHT22;50807;52.436;13.346;2023-02-27T02:00:33;3.90;67.90
15844;DHT22;50807;52.436;13.346;2023-02-27T02:01:05;3.90;68.00
15844;DHT22;50807;52.436;13.346;2023-02-27T02:01:38;3.90;68.00
15844;DHT22;50807;52.436;13.346;2023-02-27T02:02:13;3.90;68.00
15844;DHT22;50807;52.436;13.346;2023-02-27T02:02:54;3.90;68.20
15844;DHT22;50807;52.436;13.346;2023-02-27T02:03:34;3.90;68.20
15844;DHT22;50807;52.436;13.346;2023-02-27T02:04:14;3.90;68.20
15844;DHT22;50807;52.436;13.346;2023-02-27T02:04:50;3.90;68.20
15844;DHT22;50807;52.436;13.346;2023-02-27T02:05:23;3.90;68.20
15844;DHT22;50807;52.436;13.346;2023-02-27T02:05:56;3.90;68.10
15844;DHT22;50807;52.436;13.346;2023-02-27T02:06:31;3.90;68.20
15844;DHT22;50807;52.436;13.346;2023-02-27T02:07:08;3.90;68.20
15844;DHT22;50807;52.436;13.346;2023-02-27T02:07:43;3.90;68.20
15844;DHT22;50807;52.436;13.346;2023-02-27T02:08:17;3.90;68.30
15844;DHT22;50807;52.436;13.346;2023-02-27T02:08:50;3.90;68.40
15844;DHT22;50807;52.436;13.346;2023-02-27T02:09:25;3.90;68.30
15844;DHT22;50807;52.436;13.346;2023-02-27T02:10:00;3.80;68.30
15844;DHT22;50807;52.436;13.346;2023-02-27T02:10:32;3.90;68.40
15844;DHT22;50807;52.436;13.346;2023-02-27T02:11:04;3.90;68.40
15844;DHT22;50807;52.436;13.346;2023-02-27T02:11:38;3.90;68.50
15844;DHT22;50807;52.436;13.346;2023-02-27T02:12:11;3.80;68.40
15844;DHT22;50807;52.436;13.346;2023-02-27T02:12:44;3.90;68.50
15844;DHT22;50807;52.436;13.346;2023-02-27T02:13:18;3.80;68.40
15844;DHT22;50807;52.436;13.346;2023-02-27T02:13:56;3.80;68.60
15844;DHT22;50807;52.436;13.346;2023-02-27T02:14:28;3.80;68.60
15844;DHT22;50807;52.436;13.346;2023-02-27T02:14:59;3.80;68.60
15844;DHT22;50807;52.436;13.346;2023-02-27T02:15:36;3.80;68.60
15844;DHT22;50807;52.436;13.346;2023-02-27T02:16:20;3.80;68.70
15844;DHT22;50807;52.436;13.346;2023-02-27T02:17:14;3.80;68.80
15844;DHT22;50807;52.436;13.346;2023-02-27T02:17:57;3.80;68.70
15844;DHT22;50807;52.436;13.346;2023-02-27T02:18:44;3.80;68.70
15844;DHT22;50807;52.436;13.346;2023-02-27T02:19:47;3.80;68.70
15844;DHT22;50807;52.436;13.346;2023-02-27T02:21:00;3.80;68.70
15844;DHT22;50807;52.436;13.346;2023-02-27T02:22:25;3.90;68.70
15844;DHT22;50807;52.436;13.346;2023-02-27T02:23:34;3.90;68.50
15844;DHT22;50807;52.436;13.346;2023-02-27T02:27:17;3.90;68.10
15844;DHT22;50807;52.436;13.346;2023-02-27T02:28:05;4.00;68.00
15844;DHT22;50807;52.436;13.346;2023-02-27T02:29:09;3.90;67.70
15844;DHT22;50807;52.436;13.346;2023-02-27T02:30:36;3.90;67.80
15844;DHT22;50807;52.436;13.346;2023-02-27T02:31:55;3.90;67.80
15844;DHT22;50807;52.436;13.346;2023-02-27T02:33:09;3.90;67.80
15844;DHT22;50807;52.436;13.346;2023-02-27T02:34:23;3.90;67.70
15844;DHT22;50807;52.436;13.346;2023-02-27T02:36:06;3.90;67.70
15844;DHT22;50807;52.436;13.346;2023-02-27T02:37:20;3.90;67.70
15844;DHT22;50807;52.436;13.346;2023-02-27T02:38:54;3.90;67.60
15844;DHT22;50807;52.436;13.346;2023-02-27T02:40:52;3.90;67.50
15844;DHT22;50807;52.436;13.346;2023-02-27T02:41:32;3.80;67.30
15844;DHT22;50807;52.436;13.346;2023-02-27T02:42:15;3.80;67.30
15844;DHT22;50807;52.436;13.346;2023-02-27T02:42:54;3.80;67.40
15844;DHT22;50807;52.436;13.346;2023-02-27T02:43:39;3.70;67.50
15844;DHT22;50807;52.436;13.346;2023-02-27T02:44:21;3.70;67.70
15844;DHT22;50807;52.436;13.346;2023-02-27T02:45:08;3.70;67.80
15844;DHT22;50807;52.436;13.346;2023-02-27T02:45:50;3.70;68.00
15844;DHT22;50807;52.436;13.346;2023-02-27T02:46:34;3.60;68.00
15844;DHT22;50807;52.436;13.346;2023-02-27T02:47:21;3.60;68.10
15844;DHT22;50807;52.436;13.346;2023-02-27T02:48:02;3.60;68.30
15844;DHT22;50807;52.436;13.346;2023-02-27T02:48:45;3.60;68.30
15844;DHT22;50807;52.436;13.346;2023-02-27T02:49:25;3.60;68.40
15844;DHT22;50807;52.436;13.346;2023-02-27T02:50:05;3.50;68.50
15844;DHT22;50807;52.436;13.346;2023-02-27T02:50:48;3.60;68.60
15844;DHT22;50807;52.436;13.346;2023-02-27T02:51:27;3.50;68.60
15844;DHT22;50807;52.436;13.346;2023-02-27T02:52:07;3.50;68.80
15844;DHT22;50807;52.436;13.346;2023-02-27T02:52:52;3.50;68.80
15844;DHT22;50807;52.436;13.346;2023-02-27T02:53:31;3.50;68.90
15844;DHT22;50807;52.436;13.346;2023-02-27T02:54:16;3.50;69.00
15844;DHT22;50807;52.436;13.346;2023-02-27T02:54:57;3.50;69.00
15844;DHT22;50807;52.436;13.346;2023-02-27T02:55:34;3.50;69.10
15844;DHT22;50807;52.436;13.346;2023-02-27T02:56:16;3.50;69.10
15844;DHT22;50807;52.436;13.346;2023-02-27T02:56:55;3.50;69.10
15844;DHT22;50807;52.436;13.346;2023-02-27T02:57:36;3.50;69.30
15844;DHT22;50807;52.436;13.346;2023-02-27T02:58:15;3.50;69.30
15844;DHT22;50807;52.436;13.346;2023-02-27T02:58:56;3.50;69.40
15844;DHT22;50807;52.436;13.346;2023-02-27T02:59:34;3.50;69.40
15844;DHT22;50807;52.436;13.346;2023-02-27T03:00:14;3.50;69.40
15844;DHT22;50807;52.436;13.346;2023-02-27T03:00:53;3.50;69.50
15844;DHT22;50807;52.436;13.346;2023-02-27T03:01:32;3.50;69.60
15844;DHT22;50807;52.436;13.346;2023-02-27T03:02:10;3.50;69.60
15844;DHT22;50807;52.436;13.346;2023-02-27T03:02:47;3.50;69.70
15844;DHT22;50807;52.436;13.346;2023-02-27T03:03:25;3.50;69.70
15844;DHT22;50807;52.436;13.346;2023-02-27T03:04:04;3.50;69.70
15844;DHT22;50807;52.436;13.346;2023-02-27T03:04:41;3.50;69.80
15844;DHT22;50807;52.436;13.346;2023-02-27T03:05:21;3.50;69.80
15844;DHT22;50807;52.436;13.346;2023-02-27T03:05:57;3.50;69.90
15844;DHT22;50807;52.436;13.346;2023-02-27T03:06:34;3.50;69.90
15844;DHT22;50807;52.436;13.346;2023-02-27T03:07:12;3.50;70.00
15844;DHT22;50807;52.436;13.346;2023-02-27T03:07:52;3.50;70.00
15844;DHT22;50807;52.436;13.346;2023-02-27T03:08:33;3.50;70.10
15844;DHT22;50807;52.436;13.346;2023-02-27T03:09:12;3.50;70.10
15844;DHT22;50807;52.436;13.346;2023-02-27T03:09:51;3.50;70.20
15844;DHT22;50807;52.436;13.346;2023-02-27T03:10:27;3.50;70.20
15844;DHT22;50807;52.436;13.346;2023-02-27T03:11:03;3.50;70.20
15844;DHT22;50807;52.436;13.346;2023-02-27T03:11:39;3.50;70.30
15844;DHT22;50807;52.436;13.346;2023-02-27T03:12:17;3.50;70.40
15844;DHT22;50807;52.436;13.346;2023-02-27T03:12:56;3.50;70.40
15844;DHT22;50807;52.436;13.346;2023-02-27T03:13:34;3.50;70.50
15844;DHT22;50807;52.436;13.346;2023-02-27T03:14:12;3.50;70.50
15844;DHT22;50807;52.436;13.346;2023-02-27T03:14:53;3.50;70.60
15844;DHT22;50807;52.436;13.346;2023-02-27T03:15:29;3.50;70.60
15844;DHT22;50807;52.436;13.346;2023-02-27T03:16:11;3.50;70.60
15844;DHT22;50807;52.436;13.346;2023-02-27T03:16:49;3.50;70.70
15844;DHT22;50807;52.436;13.346;2023-02-27T03:17:26;3.50;70.70
15844;DHT22;50807;52.436;13.346;2023-02-27T03:18:06;3.50;70.60
15844;DHT22;50807;52.436;13.346;2023-02-27T03:18:50;3.50;70.70
15844;DHT22;50807;52.436;13.346;2023-02-27T03:19:28;3.50;70.70
15844;DHT22;50807;52.436;13.346;2023-02-27T03:20:06;3.50;70.70
15844;DHT22;50807;52.436;13.346;2023-02-27T03:20:42;3.50;70.70
15844;DHT22;50807;52.436;13.346;2023-02-27T03:21:21;3.50;70.70
15844;DHT22;50807;52.436;13.346;2023-02-27T03:22:00;3.50;70.80
15844;DHT22;50807;52.436;13.346;2023-02-27T03:22:37;3.50;70.80
15844;DHT22;50807;52.436;13.346;2023-02-27T03:23:15;3.50;70.80
15844;DHT22;50807;52.436;13.346;2023-02-27T03:23:52;3.50;70.90
15844;DHT22;50807;52.436;13.346;2023-02-27T03:24:31;3.50;70.90
15844;DHT22;50807;52.436;13.346;2023-02-27T03:25:08;3.50;70.90
15844;DHT22;50807;52.436;13.346;2023-02-27T03:25:42;3.50;70.90
15844;DHT22;50807;52.436;13.346;2023-02-27T03:26:17;3.50;70.90
15844;DHT22;50807;52.436;13.346;2023-02-27T03:26:54;3.50;71.00
15844;DHT22;50807;52.436;13.346;2023-02-27T03:27:31;3.50;71.00
15844;DHT22;50807;52.436;13.346;2023-02-27T03:28:08;3.50;71.10
15844;DHT22;50807;52.436;13.346;2023-02-27T03:28:51;3.50;71.10
15844;DHT22;50807;52.436;13.346;2023-02-27T03:29:28;3.50;71.20
15844;DHT22;50807;52.436;13.346;2023-02-27T03:30:08;3.50;71.10
15844;DHT22;50807;52.436;13.346;2023-02-27T03:30:47;3.50;71.10
15844;DHT22;50807;52.436;13.346;2023-02-27T03:31:28;3.50;71.20
15844;DHT22;50807;52.436;13.346;2023-02-27T03:32:09;3.50;71.20
15844;DHT22;50807;52.436;13.346;2023-02-27T03:32:48;3.50;71.20
15844;DHT22;50807;52.436;13.346;2023-02-27T03:33:28;3.50;71.20
15844;DHT22;50807;52.436;13.346;2023-02-27T03:34:12;3.50;71.20
15844;DHT22;50807;52.436;13.346;2023-02-27T03:34:48;3.50;71.20
15844;DHT22;50807;52.436;13.346;2023-02-27T03:35:19;3.50;71.20
15844;DHT22;50807;52.436;13.346;2023-02-27T03:36:03;3.50;71.20
15844;DHT22;50807;52.436;13.346;2023-02-27T03:36:45;3.50;71.30
15844;DHT22;50807;52.436;13.346;2023-02-27T03:37:26;3.50;71.30
15844;DHT22;50807;52.436;13.346;2023-02-27T03:38:08;3.50;71.40
15844;DHT22;50807;52.436;13.346;2023-02-27T03:38:52;3.50;71.30
15844;DHT22;50807;52.436;13.346;2023-02-27T03:39:36;3.50;71.30
15844;DHT22;50807;52.436;13.346;2023-02-27T03:40:23;3.50;71.40
15844;DHT22;50807;52.436;13.346;2023-02-27T03:41:03;3.50;71.40
15844;DHT22;50807;52.436;13.346;2023-02-27T03:41:43;3.50;72.10
15844;DHT22;50807;52.436;13.346;2023-02-27T03:42:27;3.50;71.40
15844;DHT22;50807;52.436;13.346;2023-02-27T03:43:13;3.50;71.50
15844;DHT22;50807;52.436;13.346;2023-02-27T03:43:55;3.50;71.50
15844;DHT22;50807;52.436;13.346;2023-02-27T03:44:39;3.50;71.50
15844;DHT22;50807;52.436;13.346;2023-02-27T03:45:24;3.50;71.50
15844;DHT22;50807;52.436;13.346;2023-02-27T03:46:06;3.50;71.50
15844;DHT22;50807;52.436;13.346;2023-02-27T03:46:40;3.50;71.50
15844;DHT22;50807;52.436;13.346;2023-02-27T03:47:12;3.50;71.40
15844;DHT22;50807;52.436;13.346;2023-02-27T03:47:43;3.50;71.40
15844;DHT22;50807;52.436;13.346;2023-02-27T03:48:14;3.50;71.50
15844;DHT22;50807;52.436;13.346;2023-02-27T03:48:46;3.50;71.60
15844;DHT22;50807;52.436;13.346;2023-02-27T03:49:17;3.50;71.70
15844;DHT22;50807;52.436;13.346;2023-02-27T03:49:48;3.40;71.70
15844;DHT22;50807;52.436;13.346;2023-02-27T03:50:20;3.50;71.80
15844;DHT22;50807;52.436;13.346;2023-02-27T03:50:52;3.40;71.90